sensor_id;sensor_type;location;lat;lon;timestamp;pressure;altitude;pressure_sealevel;temperature;humidity
23616;BME280;11985;49.404;7.734;2023-09-19T00:02:55;96860.88;;;14.66;100.00
23616;BME280;11985;49.404;7.734;2023-09-19T00:07:59;96868.00;;;14.65;100.00
23616;BME280;11985;49.404;7.734;2023-09-19T00:13:03;96861.59;;;14.61;100.00
23616;BME280;11985;49.404;7.734;2023-09-19T00:18:06;96865.25;;;14.60;100.00
23616;BME280;11985;49.404;7.734;2023-09-19T00:23:09;96876.34;;;14.57;100.00
23616;BME280;11985;49.404;7.734;2023-09-19T00:28:12;96876.19;;;14.64;100.00
23616;BME280;11985;49.404;7.734;2023-09-19T00:33:14;96875.41;;;14.63;100.00
23616;BME280;11985;49.404;7.734;2023-09-19T00:38:16;96871.94;;;14.63;100.00
23616;BME280;11985;49.404;7.734;2023-09-19T00:43:23;96882.78;;;14.61;100.00
23616;BME280;11985;49.404;7.734;2023-09-19T00:48:25;96889.19;;;14.65;100.00
23616;BME280;11985;49.404;7.734;2023-09-19T00:53:30;96895.31;;;14.66;100.00
23616;BME280;11985;49.404;7.734;2023-09-19T00:58:33;96885.53;;;14.66;100.00
23616;BME280;11985;49.404;7.734;2023-09-19T01:03:36;96894.59;;;14.70;100.00
23616;BME280;11985;49.404;7.734;2023-09-19T01:08:38;96902.22;;;14.67;100.00
23616;BME280;11985;49.404;7.734;2023-09-19T01:13:48;96915.41;;;14.62;100.00
23616;BME280;11985;49.404;7.734;2023-09-19T01:18:59;96914.00;;;14.59;100.00
23616;BME280;11985;49.404;7.734;2023-09-19T01:24:34;96925.09;;;14.56;100.00
23616;BME280;11985;49.404;7.734;2023-09-19T01:29:49;96920.84;;;14.55;100.00
23616;BME280;11985;49.404;7.734;2023-09-19T01:34:54;96929.50;;;14.50;100.00
23616;BME280;11985;49.404;7.734;2023-09-19T01:40:00;96938.50;;;14.49;100.00
23616;BME280;11985;49.404;7.734;2023-09-19T01:45:26;96944.72;;;14.43;100.00
23616;BME280;11985;49.404;7.734;2023-09-19T01:50:32;96943.59;;;14.39;100.00
23616;BME280;11985;49.404;7.734;2023-09-19T01:55:41;96944.75;;;14.32;100.00
23616;BME280;11985;49.404;7.734;2023-09-19T02:00:46;96962.19;;;14.27;100.00
23616;BME280;11985;49.404;7.734;2023-09-19T02:05:52;96974.19;;;14.18;100.00
23616;BME280;11985;49.404;7.734;2023-09-19T02:10:54;96966.16;;;14.13;100.00
23616;BME280;11985;49.404;7.734;2023-09-19T02:15:55;96971.09;;;14.10;100.00
23616;BME280;11985;49.404;7.734;2023-09-19T02:20:58;96979.97;;;14.04;100.00
23616;BME280;11985;49.404;7.734;2023-09-19T02:26:00;96981.16;;;13.96;100.00
23616;BME280;11985;49.404;7.734;2023-09-19T02:31:01;96982.34;;;13.88;100.00
23616;BME280;11985;49.404;7.734;2023-09-19T02:36:05;96989.13;;;13.84;100.00
23616;BME280;11985;49.404;7.734;2023-09-19T02:41:08;96987.97;;;13.80;100.00
23616;BME280;11985;49.404;7.734;2023-09-19T02:46:09;96985.47;;;13.73;100.00
23616;BME280;11985;49.404;7.734;2023-09-19T02:51:13;96987.66;;;13.65;100.00
23616;BME280;11985;49.404;7.734;2023-09-19T02:56:15;96996.50;;;13.59;100.00
23616;BME280;11985;49.404;7.734;2023-09-19T03:01:17;96992.38;;;13.51;100.00
23616;BME280;11985;49.404;7.734;2023-09-19T03:06:21;96996.50;;;13.47;100.00
23616;BME280;11985;49.404;7.734;2023-09-19T03:11:24;97004.34;;;13.42;100.00
23616;BME280;11985;49.404;7.734;2023-09-19T03:16:25;96999.03;;;13.42;100.00
23616;BME280;11985;49.404;7.734;2023-09-19T03:21:28;97001.00;;;13.35;100.00
23616;BME280;11985;49.404;7.734;2023-09-19T03:26:30;96997.69;;;13.28;100.00
23616;BME280;11985;49.404;7.734;2023-09-19T03:31:34;96991.78;;;13.26;100.00
23616;BME280;11985;49.404;7.734;2023-09-19T03:36:39;97001.66;;;13.18;100.00
23616;BME280;11985;49.404;7.734;2023-09-19T03:41:41;97011.88;;;13.15;100.00
23616;BME280;11985;49.404;7.734;2023-09-19T03:46:42;97014.31;;;13.16;100.00
23616;BME280;11985;49.404;7.734;2023-09-19T03:51:45;97024.88;;;13.16;100.00
23616;BME280;11985;49.404;7.734;2023-09-19T03:56:47;97015.81;;;13.24;100.00
23616;BME280;11985;49.404;7.734;2023-09-19T04:01:48;97014.13;;;13.30;100.00
23616;BME280;11985;49.404;7.734;2023-09-19T04:06:52;97016.63;;;13.25;100.00
23616;BME280;11985;49.404;7.734;2023-09-19T04:11:53;97019.59;;;13.16;100.00
23616;BME280;11985;49.404;7.734;2023-09-19T04:16:55;97026.38;;;13.12;100.00
23616;BME280;11985;49.404;7.734;2023-09-19T04:21:58;97027.03;;;13.08;100.00
23616;BME280;11985;49.404;7.734;2023-09-19T04:27:00;97028.75;;;13.02;100.00
23616;BME280;11985;49.404;7.734;2023-09-19T04:32:02;97032.44;;;13.01;100.00
23616;BME280;11985;49.404;7.734;2023-09-19T04:37:07;97029.66;;;12.96;100.00
23616;BME280;11985;49.404;7.734;2023-09-19T04:42:09;97033.78;;;12.92;100.00
23616;BME280;11985;49.404;7.734;2023-09-19T04:47:14;97039.16;;;12.85;100.00
23616;BME280;11985;49.404;7.734;2023-09-19T04:52:17;97043.75;;;12.78;100.00
23616;BME280;11985;49.404;7.734;2023-09-19T04:57:19;97039.53;;;12.89;100.00
23616;BME280;11985;49.404;7.734;2023-09-19T05:02:21;97052.88;;;12.94;100.00
23616;BME280;11985;49.404;7.734;2023-09-19T05:07:24;97054.03;;;12.98;100.00
23616;BME280;11985;49.404;7.734;2023-09-19T05:12:26;97048.72;;;12.98;100.00
23616;BME280;11985;49.404;7.734;2023-09-19T05:17:28;97057.00;;;12.90;100.00
23616;BME280;11985;49.404;7.734;2023-09-19T05:22:31;97059.28;;;12.86;100.00
23616;BME280;11985;49.404;7.734;2023-09-19T05:27:34;97077.69;;;12.93;100.00
23616;BME280;11985;49.404;7.734;2023-09-19T05:32:36;97083.22;;;13.03;100.00
23616;BME280;11985;49.404;7.734;2023-09-19T05:37:39;97095.06;;;13.01;100.00
23616;BME280;11985;49.404;7.734;2023-09-19T05:42:41;97097.59;;;12.95;100.00
23616;BME280;11985;49.404;7.734;2023-09-19T05:47:44;97098.81;;;12.93;100.00
23616;BME280;11985;49.404;7.734;2023-09-19T05:52:53;97114.25;;;12.96;100.00
23616;BME280;11985;49.404;7.734;2023-09-19T05:57:56;97123.22;;;12.95;100.00
23616;BME280;11985;49.404;7.734;2023-09-19T06:02:59;97123.56;;;12.99;100.00
23616;BME280;11985;49.404;7.734;2023-09-19T06:08:04;97126.56;;;13.02;100.00
23616;BME280;11985;49.404;7.734;2023-09-19T06:13:08;97134.31;;;13.15;100.00
23616;BME280;11985;49.404;7.734;2023-09-19T06:18:11;97137.56;;;13.17;100.00
23616;BME280;11985;49.404;7.734;2023-09-19T06:23:21;97134.31;;;13.15;100.00
23616;BME280;11985;49.404;7.734;2023-09-19T06:28:23;97131.66;;;13.15;100.00
23616;BME280;11985;49.404;7.734;2023-09-19T06:33:25;97134.69;;;13.19;100.00
23616;BME280;11985;49.404;7.734;2023-09-19T06:38:28;97133.47;;;13.22;100.00
23616;BME280;11985;49.404;7.734;2023-09-19T06:43:30;97146.78;;;13.27;100.00
23616;BME280;11985;49.404;7.734;2023-09-19T06:48:33;97156.50;;;13.33;100.00
23616;BME280;11985;49.404;7.734;2023-09-19T06:53:36;97149.94;;;13.35;100.00
23616;BME280;11985;49.404;7.734;2023-09-19T06:58:38;97156.03;;;13.36;100.00
23616;BME280;11985;49.404;7.734;2023-09-19T07:03:39;97159.38;;;13.43;100.00
23616;BME280;11985;49.404;7.734;2023-09-19T07:08:42;97162.28;;;13.53;100.00
23616;BME280;11985;49.404;7.734;2023-09-19T07:13:45;97184.25;;;13.54;100.00
23616;BME280;11985;49.404;7.734;2023-09-19T07:18:47;97197.50;;;13.65;100.00
23616;BME280;11985;49.404;7.734;2023-09-19T07:23:50;97197.47;;;13.84;100.00
23616;BME280;11985;49.404;7.734;2023-09-19T07:28:52;97203.00;;;13.94;100.00
23616;BME280;11985;49.404;7.734;2023-09-19T07:33:53;97211.25;;;13.86;100.00
23616;BME280;11985;49.404;7.734;2023-09-19T07:38:56;97217.84;;;13.95;100.00
23616;BME280;11985;49.404;7.734;2023-09-19T07:43:58;97222.41;;;13.88;100.00
23616;BME280;11985;49.404;7.734;2023-09-19T07:48:59;97228.88;;;13.92;100.00
23616;BME280;11985;49.404;7.734;2023-09-19T07:54:02;97236.28;;;14.02;100.00
23616;BME280;11985;49.404;7.734;2023-09-19T07:59:04;97242.78;;;13.87;100.00
23616;BME280;11985;49.404;7.734;2023-09-19T08:04:07;97246.59;;;13.80;100.00
23616;BME280;11985;49.404;7.734;2023-09-19T08:09:10;97257.88;;;13.87;100.00
23616;BME280;11985;49.404;7.734;2023-09-19T08:14:14;97255.47;;;13.97;100.00
23616;BME280;11985;49.404;7.734;2023-09-19T08:19:16;97265.16;;;14.03;100.00
23616;BME280;11985;49.404;7.734;2023-09-19T08:24:19;97259.44;;;14.18;100.00
23616;BME280;11985;49.404;7.734;2023-09-19T08:29:21;97256.25;;;14.27;100.00
23616;BME280;11985;49.404;7.734;2023-09-19T08:34:27;97260.25;;;14.42;100.00
23616;BME280;11985;49.404;7.734;2023-09-19T08:39:34;97262.00;;;14.48;100.00
23616;BME280;11985;49.404;7.734;2023-09-19T08:44:37;97262.13;;;14.53;100.00
23616;BME280;11985;49.404;7.734;2023-09-19T08:49:48;97255.75;;;14.42;100.00
23616;BME280;11985;49.404;7.734;2023-09-19T08:54:58;97265.84;;;14.52;100.00
23616;BME280;11985;49.404;7.734;2023-09-19T09:00:02;97259.47;;;14.88;100.00
23616;BME280;11985;49.404;7.734;2023-09-19T09:05:10;97271.34;;;14.86;100.00
23616;BME280;11985;49.404;7.734;2023-09-19T09:10:14;97275.28;;;14.71;100.00
23616;BME280;11985;49.404;7.734;2023-09-19T09:15:17;97276.91;;;14.72;100.00
23616;BME280;11985;49.404;7.734;2023-09-19T09:20:22;97279.66;;;14.77;100.00
23616;BME280;11985;49.404;7.734;2023-09-19T09:25:51;97287.94;;;14.69;100.00
23616;BME280;11985;49.404;7.734;2023-09-19T09:30:57;97275.06;;;14.61;100.00
23616;BME280;11985;49.404;7.734;2023-09-19T09:36:00;97278.03;;;14.76;100.00
23616;BME280;11985;49.404;7.734;2023-09-19T09:41:04;97278.38;;;14.68;100.00
23616;BME280;11985;49.404;7.734;2023-09-19T09:46:09;97276.09;;;14.84;100.00
23616;BME280;11985;49.404;7.734;2023-09-19T09:51:33;97269.72;;;14.85;100.00
23616;BME280;11985;49.404;7.734;2023-09-19T09:56:52;97269.06;;;14.77;100.00
23616;BME280;11985;49.404;7.734;2023-09-19T10:01:54;97261.66;;;14.79;100.00
23616;BME280;11985;49.404;7.734;2023-09-19T10:06:57;97262.66;;;15.02;100.00
23616;BME280;11985;49.404;7.734;2023-09-19T10:12:06;97271.19;;;15.04;100.00
23616;BME280;11985;49.404;7.734;2023-09-19T10:17:10;97263.00;;;15.17;100.00
23616;BME280;11985;49.404;7.734;2023-09-19T10:22:12;97263.75;;;15.58;100.00
23616;BME280;11985;49.404;7.734;2023-09-19T10:27:18;97266.16;;;16.33;100.00
23616;BME280;11985;49.404;7.734;2023-09-19T10:32:22;97263.56;;;16.39;100.00
23616;BME280;11985;49.404;7.734;2023-09-19T10:37:26;97259.06;;;16.56;100.00
23616;BME280;11985;49.404;7.734;2023-09-19T10:42:31;97269.91;;;16.88;100.00
23616;BME280;11985;49.404;7.734;2023-09-19T10:47:34;97261.59;;;16.84;97.92
23616;BME280;11985;49.404;7.734;2023-09-19T10:52:40;97254.75;;;17.10;96.49
23616;BME280;11985;49.404;7.734;2023-09-19T10:57:46;97253.19;;;17.36;94.69
23616;BME280;11985;49.404;7.734;2023-09-19T11:03:16;97254.06;;;17.20;92.99
23616;BME280;11985;49.404;7.734;2023-09-19T11:08:19;97256.09;;;16.91;92.57
23616;BME280;11985;49.404;7.734;2023-09-19T11:13:26;97257.53;;;16.99;92.34
23616;BME280;11985;49.404;7.734;2023-09-19T11:18:56;97243.94;;;17.17;92.22
23616;BME280;11985;49.404;7.734;2023-09-19T11:24:28;97236.13;;;16.88;90.92
23616;BME280;11985;49.404;7.734;2023-09-19T11:29:33;97228.69;;;16.91;91.74
23616;BME280;11985;49.404;7.734;2023-09-19T11:34:43;97228.63;;;17.29;90.97
23616;BME280;11985;49.404;7.734;2023-09-19T11:40:05;97225.75;;;17.36;88.97
23616;BME280;11985;49.404;7.734;2023-09-19T11:50:49;97209.63;;;18.02;86.07
23616;BME280;11985;49.404;7.734;2023-09-19T11:55:51;97209.72;;;18.12;85.04
23616;BME280;11985;49.404;7.734;2023-09-19T12:00:54;97211.03;;;17.77;83.94
23616;BME280;11985;49.404;7.734;2023-09-19T12:05:59;97209.59;;;17.42;84.69
23616;BME280;11985;49.404;7.734;2023-09-19T12:11:02;97212.31;;;17.48;86.42
23616;BME280;11985;49.404;7.734;2023-09-19T12:16:12;97210.72;;;17.47;86.81
23616;BME280;11985;49.404;7.734;2023-09-19T12:21:24;97208.38;;;17.77;87.80
23616;BME280;11985;49.404;7.734;2023-09-19T12:26:27;97209.31;;;17.66;86.26
23616;BME280;11985;49.404;7.734;2023-09-19T12:31:29;97199.19;;;17.68;86.83
23616;BME280;11985;49.404;7.734;2023-09-19T12:36:38;97199.84;;;17.53;85.30
23616;BME280;11985;49.404;7.734;2023-09-19T12:41:40;97202.41;;;17.70;85.05
23616;BME280;11985;49.404;7.734;2023-09-19T12:46:42;97198.00;;;18.13;83.71
23616;BME280;11985;49.404;7.734;2023-09-19T12:51:46;97198.50;;;18.47;82.30
23616;BME280;11985;49.404;7.734;2023-09-19T12:56:47;97192.41;;;18.57;80.47
23616;BME280;11985;49.404;7.734;2023-09-19T13:02:03;97171.97;;;18.67;80.66
23616;BME280;11985;49.404;7.734;2023-09-19T13:07:07;97175.28;;;18.90;80.43
23616;BME280;11985;49.404;7.734;2023-09-19T13:17:42;97178.34;;;19.29;78.56
23616;BME280;11985;49.404;7.734;2023-09-19T13:22:45;97170.41;;;19.65;75.94
23616;BME280;11985;49.404;7.734;2023-09-19T13:27:51;97161.78;;;19.22;73.38
23616;BME280;11985;49.404;7.734;2023-09-19T13:33:04;97167.09;;;19.22;73.27
23616;BME280;11985;49.404;7.734;2023-09-19T13:38:07;97172.94;;;19.14;72.35
23616;BME280;11985;49.404;7.734;2023-09-19T13:43:11;97171.66;;;19.21;72.77
23616;BME280;11985;49.404;7.734;2023-09-19T13:48:13;97171.47;;;19.59;73.07
23616;BME280;11985;49.404;7.734;2023-09-19T13:53:16;97163.47;;;19.64;73.37
23616;BME280;11985;49.404;7.734;2023-09-19T13:58:18;97157.81;;;19.50;72.72
23616;BME280;11985;49.404;7.734;2023-09-19T14:03:21;97160.22;;;19.51;72.80
23616;BME280;11985;49.404;7.734;2023-09-19T14:08:25;97151.06;;;19.17;72.22
23616;BME280;11985;49.404;7.734;2023-09-19T14:13:27;97149.91;;;18.87;73.32
23616;BME280;11985;49.404;7.734;2023-09-19T14:18:29;97154.75;;;19.01;74.91
23616;BME280;11985;49.404;7.734;2023-09-19T14:23:35;97144.13;;;19.21;75.59
23616;BME280;11985;49.404;7.734;2023-09-19T14:28:37;97135.59;;;19.29;74.55
23616;BME280;11985;49.404;7.734;2023-09-19T14:33:39;97126.56;;;19.45;73.78
23616;BME280;11985;49.404;7.734;2023-09-19T14:38:43;97127.09;;;19.52;74.55
23616;BME280;11985;49.404;7.734;2023-09-19T14:43:44;97129.00;;;19.62;74.39
23616;BME280;11985;49.404;7.734;2023-09-19T14:48:46;97121.75;;;19.47;73.82
23616;BME280;11985;49.404;7.734;2023-09-19T14:53:49;97112.66;;;19.38;73.69
23616;BME280;11985;49.404;7.734;2023-09-19T14:58:51;97121.97;;;19.31;74.09
23616;BME280;11985;49.404;7.734;2023-09-19T15:03:53;97111.63;;;19.75;74.25
23616;BME280;11985;49.404;7.734;2023-09-19T15:08:57;97112.16;;;19.82;72.00
23616;BME280;11985;49.404;7.734;2023-09-19T15:13:58;97117.53;;;19.72;72.64
23616;BME280;11985;49.404;7.734;2023-09-19T15:19:00;97108.38;;;20.03;71.87
23616;BME280;11985;49.404;7.734;2023-09-19T15:24:04;97104.59;;;20.30;69.93
23616;BME280;11985;49.404;7.734;2023-09-19T15:29:09;97104.34;;;20.96;69.37
23616;BME280;11985;49.404;7.734;2023-09-19T15:34:10;97093.03;;;21.09;66.72
23616;BME280;11985;49.404;7.734;2023-09-19T15:39:15;97093.09;;;21.78;65.48
23616;BME280;11985;49.404;7.734;2023-09-19T15:44:19;97095.13;;;21.91;62.72
23616;BME280;11985;49.404;7.734;2023-09-19T15:49:20;97093.69;;;20.91;61.61
23616;BME280;11985;49.404;7.734;2023-09-19T15:54:25;97085.03;;;21.49;62.12
23616;BME280;11985;49.404;7.734;2023-09-19T15:59:28;97092.16;;;20.75;62.67
23616;BME280;11985;49.404;7.734;2023-09-19T16:04:30;97088.44;;;23.08;60.62
23616;BME280;11985;49.404;7.734;2023-09-19T16:09:36;97091.25;;;24.89;57.02
23616;BME280;11985;49.404;7.734;2023-09-19T16:14:38;97087.06;;;25.55;53.58
23616;BME280;11985;49.404;7.734;2023-09-19T16:19:40;97076.97;;;25.83;51.89
23616;BME280;11985;49.404;7.734;2023-09-19T16:24:44;97087.28;;;24.45;51.01
23616;BME280;11985;49.404;7.734;2023-09-19T16:29:45;97087.03;;;24.14;51.30
23616;BME280;11985;49.404;7.734;2023-09-19T16:34:48;97089.56;;;23.78;51.91
23616;BME280;11985;49.404;7.734;2023-09-19T16:39:51;97087.25;;;22.53;52.81
23616;BME280;11985;49.404;7.734;2023-09-19T16:44:53;97087.81;;;20.89;55.61
23616;BME280;11985;49.404;7.734;2023-09-19T16:49:54;97099.34;;;19.74;58.87
23616;BME280;11985;49.404;7.734;2023-09-19T16:54:57;97096.56;;;18.97;62.16
23616;BME280;11985;49.404;7.734;2023-09-19T16:59:59;97098.50;;;18.44;65.80
23616;BME280;11985;49.404;7.734;2023-09-19T17:05:01;97090.88;;;18.16;69.06
23616;BME280;11985;49.404;7.734;2023-09-19T17:10:06;97095.06;;;18.02;71.86
23616;BME280;11985;49.404;7.734;2023-09-19T17:15:08;97098.72;;;17.90;74.33
23616;BME280;11985;49.404;7.734;2023-09-19T17:20:10;97097.78;;;17.75;76.45
23616;BME280;11985;49.404;7.734;2023-09-19T17:25:14;97102.25;;;17.69;77.99
23616;BME280;11985;49.404;7.734;2023-09-19T17:30:17;97106.06;;;17.46;79.29
23616;BME280;11985;49.404;7.734;2023-09-19T17:35:19;97116.56;;;17.31;80.85
23616;BME280;11985;49.404;7.734;2023-09-19T17:40:22;97114.59;;;17.16;82.24
23616;BME280;11985;49.404;7.734;2023-09-19T17:45:23;97113.09;;;17.03;83.64
23616;BME280;11985;49.404;7.734;2023-09-19T17:50:25;97113.75;;;16.88;85.04
23616;BME280;11985;49.404;7.734;2023-09-19T17:55:28;97118.91;;;16.73;86.67
23616;BME280;11985;49.404;7.734;2023-09-19T18:00:29;97126.41;;;16.59;87.93
23616;BME280;11985;49.404;7.734;2023-09-19T18:05:31;97120.97;;;16.49;89.62
23616;BME280;11985;49.404;7.734;2023-09-19T18:10:37;97125.22;;;16.28;91.00
23616;BME280;11985;49.404;7.734;2023-09-19T18:15:39;97123.47;;;16.17;92.60
23616;BME280;11985;49.404;7.734;2023-09-19T18:20:41;97121.22;;;16.09;93.28
23616;BME280;11985;49.404;7.734;2023-09-19T18:25:44;97125.25;;;16.12;94.27
23616;BME280;11985;49.404;7.734;2023-09-19T18:30:46;97131.53;;;16.22;94.27
23616;BME280;11985;49.404;7.734;2023-09-19T18:35:48;97138.91;;;16.20;94.56
23616;BME280;11985;49.404;7.734;2023-09-19T18:40:51;97141.91;;;16.07;94.90
23616;BME280;11985;49.404;7.734;2023-09-19T18:45:55;97137.50;;;15.96;95.56
23616;BME280;11985;49.404;7.734;2023-09-19T18:50:57;97137.84;;;15.82;96.51
23616;BME280;11985;49.404;7.734;2023-09-19T18:56:04;97139.75;;;15.70;97.56
23616;BME280;11985;49.404;7.734;2023-09-19T19:01:07;97137.47;;;15.62;98.97
23616;BME280;11985;49.404;7.734;2023-09-19T19:06:11;97150.50;;;15.47;100.00
23616;BME280;11985;49.404;7.734;2023-09-19T19:11:17;97147.56;;;15.31;100.00
23616;BME280;11985;49.404;7.734;2023-09-19T19:16:21;97148.22;;;15.22;100.00
23616;BME280;11985;49.404;7.734;2023-09-19T19:21:26;97154.94;;;15.13;100.00
23616;BME280;11985;49.404;7.734;2023-09-19T19:26:29;97149.44;;;15.02;100.00
23616;BME280;11985;49.404;7.734;2023-09-19T19:31:31;97153.63;;;14.87;100.00
23616;BME280;11985;49.404;7.734;2023-09-19T19:36:34;97145.47;;;14.76;100.00
23616;BME280;11985;49.404;7.734;2023-09-19T19:41:37;97157.59;;;14.72;100.00
23616;BME280;11985;49.404;7.734;2023-09-19T19:46:38;97157.94;;;14.64;100.00
23616;BME280;11985;49.404;7.734;2023-09-19T19:51:40;97161.44;;;14.53;100.00
23616;BME280;11985;49.404;7.734;2023-09-19T19:56:45;97167.41;;;14.60;100.00
23616;BME280;11985;49.404;7.734;2023-09-19T20:01:47;97171.31;;;14.69;100.00
23616;BME280;11985;49.404;7.734;2023-09-19T20:06:49;97169.56;;;14.75;100.00
23616;BME280;11985;49.404;7.734;2023-09-19T20:11:52;97171.41;;;14.74;100.00
23616;BME280;11985;49.404;7.734;2023-09-19T20:16:56;97168.41;;;14.71;100.00
23616;BME280;11985;49.404;7.734;2023-09-19T20:22:00;97160.38;;;14.66;100.00
23616;BME280;11985;49.404;7.734;2023-09-19T20:27:04;97162.94;;;14.61;100.00
23616;BME280;11985;49.404;7.734;2023-09-19T20:32:07;97161.44;;;14.53;100.00
23616;BME280;11985;49.404;7.734;2023-09-19T20:37:09;97167.22;;;14.50;100.00
23616;BME280;11985;49.404;7.734;2023-09-19T20:42:12;97168.91;;;14.44;100.00
23616;BME280;11985;49.404;7.734;2023-09-19T20:47:14;97177.06;;;14.43;100.00
23616;BME280;11985;49.404;7.734;2023-09-19T20:52:16;97167.53;;;14.30;100.00
23616;BME280;11985;49.404;7.734;2023-09-19T20:57:19;97169.50;;;14.23;100.00
23616;BME280;11985;49.404;7.734;2023-09-19T21:02:21;97174.31;;;14.14;100.00
23616;BME280;11985;49.404;7.734;2023-09-19T21:07:22;97170.88;;;14.02;100.00
23616;BME280;11985;49.404;7.734;2023-09-19T21:12:26;97164.91;;;13.95;100.00
23616;BME280;11985;49.404;7.734;2023-09-19T21:17:27;97166.38;;;13.91;100.00
23616;BME280;11985;49.404;7.734;2023-09-19T21:22:29;97151.66;;;13.83;100.00
23616;BME280;11985;49.404;7.734;2023-09-19T21:27:32;97164.28;;;13.81;100.00
23616;BME280;11985;49.404;7.734;2023-09-19T21:32:34;97161.44;;;13.83;100.00
23616;BME280;11985;49.404;7.734;2023-09-19T21:37:36;97165.09;;;13.82;100.00
23616;BME280;11985;49.404;7.734;2023-09-19T21:42:39;97159.69;;;13.77;100.00
23616;BME280;11985;49.404;7.734;2023-09-19T21:47:41;97154.28;;;13.71;100.00
23616;BME280;11985;49.404;7.734;2023-09-19T21:52:43;97147.13;;;13.60;100.00
23616;BME280;11985;49.404;7.734;2023-09-19T21:57:46;97139.50;;;13.52;100.00
23616;BME280;11985;49.404;7.734;2023-09-19T22:02:47;97133.84;;;13.48;100.00
23616;BME280;11985;49.404;7.734;2023-09-19T22:07:49;97132.13;;;13.42;100.00
23616;BME280;11985;49.404;7.734;2023-09-19T22:12:52;97138.44;;;13.41;100.00
23616;BME280;11985;49.404;7.734;2023-09-19T22:17:55;97143.06;;;13.46;100.00
23616;BME280;11985;49.404;7.734;2023-09-19T22:22:58;97151.56;;;13.48;100.00
23616;BME280;11985;49.404;7.734;2023-09-19T22:28:01;97147.44;;;13.52;100.00
23616;BME280;11985;49.404;7.734;2023-09-19T22:33:04;97155.75;;;13.56;100.00
23616;BME280;11985;49.404;7.734;2023-09-19T22:38:10;97158.16;;;13.57;100.00
23616;BME280;11985;49.404;7.734;2023-09-19T22:43:15;97151.50;;;13.66;100.00
23616;BME280;11985;49.404;7.734;2023-09-19T22:48:18;97154.28;;;13.71;100.00
23616;BME280;11985;49.404;7.734;2023-09-19T22:53:24;97150.13;;;13.76;100.00
23616;BME280;11985;49.404;7.734;2023-09-19T22:58:29;97142.66;;;13.72;100.00
23616;BME280;11985;49.404;7.734;2023-09-19T23:03:31;97138.84;;;13.68;100.00
23616;BME280;11985;49.404;7.734;2023-09-19T23:08:33;97145.63;;;13.64;100.00
23616;BME280;11985;49.404;7.734;2023-09-19T23:13:36;97144.25;;;13.62;100.00
23616;BME280;11985;49.404;7.734;2023-09-19T23:18:39;97157.81;;;13.65;100.00
23616;BME280;11985;49.404;7.734;2023-09-19T23:23:43;97159.34;;;13.73;100.00
23616;BME280;11985;49.404;7.734;2023-09-19T23:28:48;97151.97;;;13.75;100.00
23616;BME280;11985;49.404;7.734;2023-09-19T23:33:50;97154.19;;;13.78;100.00
23616;BME280;11985;49.404;7.734;2023-09-19T23:38:52;97147.03;;;13.79;100.00
23616;BME280;11985;49.404;7.734;2023-09-19T23:43:59;97146.09;;;13.73;100.00
23616;BME280;11985;49.404;7.734;2023-09-19T23:49:01;97146.91;;;13.73;100.00
23616;BME280;11985;49.404;7.734;2023-09-19T23:54:08;97152.78;;;13.76;100.00
23616;BME280;11985;49.404;7.734;2023-09-19T23:59:15;97154.06;;;13.85;100.00
